createdAt,value
2016-12-10T00:00:19.737Z,78.06
2016-12-10T00:01:19.745Z,78.16
2016-12-10T00:02:19.763Z,78.34
2016-12-10T00:03:19.773Z,78.25
2016-12-10T00:04:19.789Z,78.25
2016-12-10T00:05:19.801Z,78.25
2016-12-10T00:06:19.811Z,78.16
2016-12-10T00:07:19.835Z,78.25
2016-12-10T00:08:19.846Z,78.06
2016-12-10T00:09:19.860Z,78.25
2016-12-10T00:10:19.872Z,78.06
2016-12-10T00:11:19.905Z,78.25
2016-12-10T00:12:19.899Z,77.97
2016-12-10T00:13:19.949Z,78.44
2016-12-10T00:14:19.936Z,78.44
2016-12-10T00:15:19.950Z,78.25
2016-12-10T00:16:19.958Z,78.25
2016-12-10T00:17:19.980Z,78.25
2016-12-10T00:18:19.993Z,77.87
2016-12-10T00:19:20.022Z,78.16
2016-12-10T00:20:20.017Z,78.44
2016-12-10T00:21:20.045Z,77.97
2016-12-10T00:22:20.048Z,78.06
2016-12-10T00:23:20.060Z,78.25
2016-12-10T00:24:20.116Z,78.06
2016-12-10T00:25:20.087Z,77.97
2016-12-10T00:26:20.302Z,77.97
2016-12-10T00:27:20.129Z,78.06
2016-12-10T00:28:20.153Z,78.16
2016-12-10T00:29:20.179Z,77.87
2016-12-10T00:30:20.173Z,77.92
2016-12-10T00:31:20.173Z,77.87
2016-12-10T00:32:20.192Z,78.06
2016-12-10T00:33:20.204Z,78.25
2016-12-10T00:34:20.235Z,78.16
2016-12-10T00:35:20.234Z,77.87
2016-12-10T00:36:20.255Z,78.06
2016-12-10T00:37:20.266Z,77.97
2016-12-10T00:38:20.291Z,78.06
2016-12-10T00:39:20.319Z,78.06
2016-12-10T00:40:20.306Z,78.02
2016-12-10T00:41:20.338Z,77.58
2016-12-10T00:42:20.347Z,77.58
2016-12-10T00:43:20.344Z,78.16
2016-12-10T00:44:20.385Z,77.64
2016-12-10T00:45:20.401Z,77.68
2016-12-10T00:46:20.392Z,77.64
2016-12-10T00:47:20.401Z,77.68
2016-12-10T00:48:20.419Z,77.64
2016-12-10T00:49:20.444Z,77.49
2016-12-10T00:50:20.445Z,77.77
2016-12-10T00:51:20.462Z,77.77
2016-12-10T00:52:20.473Z,77.92
2016-12-10T00:53:20.488Z,78.06
2016-12-10T00:54:20.505Z,77.87
2016-12-10T00:55:20.518Z,77.77
2016-12-10T00:56:20.529Z,77.87
2016-12-10T00:57:20.577Z,77.77
2016-12-10T00:58:20.559Z,77.77
2016-12-10T00:59:20.610Z,77.73
2016-12-10T01:00:20.586Z,77.77
2016-12-10T01:01:20.601Z,77.77
2016-12-10T01:02:20.635Z,77.83
2016-12-10T01:03:20.630Z,77.73
2016-12-10T01:04:20.656Z,77.83
2016-12-10T01:05:20.660Z,77.73
2016-12-10T01:06:20.671Z,77.87
2016-12-10T01:07:20.699Z,77.64
2016-12-10T01:08:20.715Z,77.73
2016-12-10T01:09:20.722Z,77.92
2016-12-10T01:10:20.734Z,77.73
2016-12-10T01:11:20.748Z,77.92
2016-12-10T01:12:20.766Z,77.92
2016-12-10T01:13:20.778Z,77.92
2016-12-10T01:14:20.789Z,77.73
2016-12-10T01:15:20.813Z,77.73
2016-12-10T01:16:20.816Z,77.92
2016-12-10T01:17:20.840Z,77.64
2016-12-10T01:18:20.868Z,77.64
2016-12-10T01:19:20.861Z,77.92
2016-12-10T01:20:20.871Z,77.73
2016-12-10T01:21:20.889Z,77.83
2016-12-10T01:22:20.904Z,77.73
2016-12-10T01:23:20.965Z,77.92
2016-12-10T01:24:20.926Z,77.73
2016-12-10T01:25:20.945Z,77.64
2016-12-10T01:26:20.956Z,78.02
2016-12-10T01:27:20.979Z,78.02
2016-12-10T01:28:21.008Z,77.64
2016-12-10T01:29:20.995Z,77.83
2016-12-10T01:30:21.011Z,78.11
2016-12-10T01:31:21.024Z,78.02
2016-12-10T01:32:21.039Z,77.92
2016-12-10T01:33:21.065Z,77.83
2016-12-10T01:34:21.067Z,78.11
2016-12-10T01:35:21.090Z,78.11
2016-12-10T01:36:21.101Z,77.83
2016-12-10T01:37:21.111Z,77.36
2016-12-10T01:38:21.128Z,77.26
2016-12-10T01:39:21.140Z,77.36
2016-12-10T01:40:21.153Z,77.83
2016-12-10T01:41:21.167Z,77.64
2016-12-10T01:42:21.180Z,77.73
2016-12-10T01:43:21.192Z,77.45
2016-12-10T01:44:21.206Z,77.64
2016-12-10T01:45:21.219Z,76.97
2016-12-10T01:46:21.234Z,77.07
2016-12-10T01:47:21.246Z,77.07
2016-12-10T01:48:21.264Z,77.55
2016-12-10T01:49:21.279Z,77.07
2016-12-10T01:50:21.291Z,77.07
2016-12-10T01:51:21.305Z,77.83
2016-12-10T01:52:21.319Z,77.36
2016-12-10T01:53:21.331Z,77.64
2016-12-10T01:54:21.345Z,77.64
2016-12-10T01:55:21.361Z,77.17
2016-12-10T01:56:21.376Z,77.83
2016-12-10T01:57:21.390Z,77.73
2016-12-10T01:58:21.400Z,77.36
2016-12-10T01:59:21.418Z,76.88
2016-12-10T02:00:21.430Z,77.83
2016-12-10T02:01:21.447Z,77.55
2016-12-10T02:02:21.458Z,77.83
2016-12-10T02:03:21.471Z,77.26
2016-12-10T02:04:21.485Z,76.97
2016-12-10T02:05:21.511Z,78.02
2016-12-10T02:06:21.511Z,77.45
2016-12-10T02:07:21.530Z,77.64
2016-12-10T02:08:21.545Z,77.83
2016-12-10T02:09:21.556Z,77.73
2016-12-10T02:10:21.568Z,76.88
2016-12-10T02:11:21.583Z,77.73
2016-12-10T02:12:21.597Z,77.83
2016-12-10T02:13:21.611Z,76.97
2016-12-10T02:14:21.629Z,77.17
2016-12-10T02:15:21.639Z,77.36
2016-12-10T02:16:21.655Z,77.64
2016-12-10T02:17:21.667Z,77.73
2016-12-10T02:18:21.677Z,77.55
2016-12-10T02:19:21.693Z,77.73
2016-12-10T02:20:21.708Z,77.64
2016-12-10T02:21:21.723Z,77.73
2016-12-10T02:22:21.739Z,77.64
2016-12-10T02:23:21.779Z,77.55
2016-12-10T02:24:21.763Z,77.07
2016-12-10T02:25:21.777Z,77.45
2016-12-10T02:26:21.790Z,77.73
2016-12-10T02:27:21.806Z,77.73
2016-12-10T02:28:21.819Z,77.36
2016-12-10T02:29:21.835Z,77.73
2016-12-10T02:30:21.845Z,77.55
2016-12-10T02:31:21.861Z,77.36
2016-12-10T02:32:21.874Z,77.36
2016-12-10T02:33:21.889Z,77.45
2016-12-10T02:34:21.903Z,77.26
2016-12-10T02:35:21.917Z,77.83
2016-12-10T02:36:21.928Z,77.36
2016-12-10T02:37:21.943Z,77.64
2016-12-10T02:38:21.958Z,77.55
2016-12-10T02:39:21.969Z,77.55
2016-12-10T02:40:21.993Z,77.83
2016-12-10T02:41:21.999Z,77.26
2016-12-10T02:42:22.011Z,77.55
2016-12-10T02:43:22.039Z,77.17
2016-12-10T02:44:22.040Z,77.36
2016-12-10T02:45:22.050Z,77.45
2016-12-10T02:46:22.066Z,77.17
2016-12-10T02:47:22.081Z,77.17
2016-12-10T02:48:22.094Z,77.07
2016-12-10T02:49:22.118Z,77.07
2016-12-10T02:50:22.121Z,77.45
2016-12-10T02:51:22.137Z,77.17
2016-12-10T02:52:22.196Z,77.26
2016-12-10T02:53:22.183Z,77.12
2016-12-10T02:54:22.172Z,77.31
2016-12-10T02:55:22.220Z,77.12
2016-12-10T02:56:22.202Z,77.22
2016-12-10T02:57:22.226Z,77.12
2016-12-10T02:58:22.228Z,77.36
2016-12-10T02:59:22.243Z,77.55
2016-12-10T03:00:22.257Z,77.31
2016-12-10T03:01:22.272Z,77.41
2016-12-10T03:02:22.282Z,77.45
2016-12-10T03:03:22.297Z,77.55
2016-12-10T03:04:22.311Z,77.51
2016-12-10T03:05:22.326Z,77.17
2016-12-10T03:06:22.339Z,77.31
2016-12-10T03:07:22.353Z,77.03
2016-12-10T03:08:22.363Z,77.03
2016-12-10T03:09:22.376Z,77.51
2016-12-10T03:10:22.394Z,77.41
2016-12-10T03:11:22.452Z,77.51
2016-12-10T03:12:22.459Z,77.51
2016-12-10T03:13:22.433Z,77.03
2016-12-10T03:14:22.444Z,77.12
2016-12-10T03:15:22.492Z,77.31
2016-12-10T03:16:22.473Z,77.51
2016-12-10T03:17:22.511Z,77.12
2016-12-10T03:18:22.531Z,77.41
2016-12-10T03:19:22.514Z,77.6
2016-12-10T03:20:22.526Z,77.31
2016-12-10T03:21:22.580Z,77.6
2016-12-10T03:22:22.576Z,77.22
2016-12-10T03:23:22.612Z,77.41
2016-12-10T03:24:22.595Z,77.41
2016-12-10T03:25:22.594Z,77.41
2016-12-10T03:26:22.662Z,77.31
2016-12-10T03:27:22.676Z,77.12
2016-12-10T03:28:22.670Z,77.12
2016-12-10T03:29:22.705Z,77.7
2016-12-10T03:30:22.723Z,77.7
2016-12-10T03:31:22.712Z,77.41
2016-12-10T03:32:22.690Z,77.51
2016-12-10T03:33:22.699Z,77.41
2016-12-10T03:34:22.717Z,77.31
2016-12-10T03:35:22.741Z,77.22
2016-12-10T03:36:22.744Z,77.51
2016-12-10T03:37:22.756Z,77.31
2016-12-10T03:38:22.861Z,77.12
2016-12-10T03:39:22.787Z,77.12
2016-12-10T03:40:22.798Z,77.51
2016-12-10T03:41:22.834Z,77.03
2016-12-10T03:42:22.847Z,77.03
2016-12-10T03:43:22.839Z,77.03
2016-12-10T03:44:22.849Z,77.22
2016-12-10T03:45:22.874Z,77.22
2016-12-10T03:46:22.879Z,77.31
2016-12-10T03:47:22.930Z,77.22
2016-12-10T03:48:22.929Z,77.41
2016-12-10T03:49:22.926Z,77.7
2016-12-10T03:50:22.930Z,77.22
2016-12-10T03:51:22.947Z,77.7
2016-12-10T03:52:22.960Z,77.03
2016-12-10T03:53:22.972Z,77.31
2016-12-10T03:54:22.992Z,77.7
2016-12-10T03:55:23.001Z,77.79
2016-12-10T03:56:23.012Z,77.31
2016-12-10T03:57:23.052Z,77.41
2016-12-10T03:58:23.084Z,77.03
2016-12-10T03:59:23.051Z,77.7
2016-12-10T04:00:23.062Z,77.79
2016-12-10T04:01:23.106Z,76.93
2016-12-10T04:02:23.087Z,77.51
2016-12-10T04:03:23.105Z,77.51
2016-12-10T04:04:23.146Z,77.6
2016-12-10T04:05:23.151Z,77.03
2016-12-10T04:06:23.146Z,77.6
2016-12-10T04:07:23.155Z,76.93
2016-12-10T04:08:23.171Z,77.7
2016-12-10T04:09:23.184Z,76.93
2016-12-10T04:10:23.208Z,77.6
2016-12-10T04:11:23.208Z,77.79
2016-12-10T04:12:23.225Z,77.03
2016-12-10T04:13:23.236Z,77.41
2016-12-10T04:14:23.264Z,77.03
2016-12-10T04:15:23.296Z,76.84
2016-12-10T04:16:23.278Z,77.7
2016-12-10T04:17:23.313Z,77.6
2016-12-10T04:18:23.300Z,77.22
2016-12-10T04:19:23.347Z,77.31
2016-12-10T04:20:23.366Z,77.41
2016-12-10T04:21:23.389Z,77.22
2016-12-10T04:22:23.378Z,77.31
2016-12-10T04:23:23.393Z,77.51
2016-12-10T04:24:23.381Z,77.51
2016-12-10T04:25:23.401Z,77.41
2016-12-10T04:26:23.452Z,77.89
2016-12-10T04:27:23.423Z,77.89
2016-12-10T04:28:23.474Z,77.98
2016-12-10T04:29:23.463Z,77.41
2016-12-10T04:30:23.465Z,77.98
2016-12-10T04:31:23.493Z,77.89
2016-12-10T04:32:23.502Z,77.89
2016-12-10T04:33:23.524Z,77.89
2016-12-10T04:34:23.513Z,77.31
2016-12-10T04:35:23.555Z,77.79
2016-12-10T04:36:23.550Z,77.98
2016-12-10T04:37:23.554Z,77.98
2016-12-10T04:38:23.588Z,77.98
2016-12-10T04:39:23.585Z,77.79
2016-12-10T04:40:23.602Z,77.7
2016-12-10T04:41:23.645Z,77.89
2016-12-10T04:42:23.623Z,77.79
2016-12-10T04:43:23.651Z,77.7
2016-12-10T04:44:23.646Z,77.79
2016-12-10T04:45:23.673Z,77.6
2016-12-10T04:46:23.675Z,77.7
2016-12-10T04:47:23.717Z,77.41
2016-12-10T04:48:23.735Z,77.89
2016-12-10T04:49:23.712Z,77.51
2016-12-10T04:50:23.810Z,77.89
2016-12-10T04:51:23.766Z,78.08
2016-12-10T04:52:23.760Z,78.17
2016-12-10T04:53:23.784Z,78.08
2016-12-10T04:54:23.840Z,78.17
2016-12-10T04:55:23.793Z,77.89
2016-12-10T04:56:23.813Z,78.27
2016-12-10T04:57:23.822Z,78.27
2016-12-10T04:58:23.836Z,78.08
2016-12-10T04:59:23.845Z,78.08
2016-12-10T05:00:23.859Z,78.27
2016-12-10T05:01:23.878Z,78.27
2016-12-10T05:02:23.887Z,77.89
2016-12-10T05:03:23.899Z,77.98
2016-12-10T05:04:23.934Z,77.98
2016-12-10T05:05:23.922Z,78.08
2016-12-10T05:06:23.970Z,78.08
2016-12-10T05:07:23.951Z,78.27
2016-12-10T05:08:24.007Z,77.89
2016-12-10T05:09:24.036Z,78.27
2016-12-10T05:10:24.035Z,77.89
2016-12-10T05:11:24.008Z,77.98
2016-12-10T05:12:24.112Z,78.27
2016-12-10T05:13:24.052Z,78.08
2016-12-10T05:14:24.082Z,78.27
2016-12-10T05:15:24.096Z,77.98
2016-12-10T05:16:24.073Z,78.36
2016-12-10T05:17:24.086Z,78.08
2016-12-10T05:18:24.118Z,77.98
2016-12-10T05:19:24.109Z,77.98
2016-12-10T05:20:24.133Z,78.45
2016-12-10T05:21:24.154Z,77.98
2016-12-10T05:22:24.194Z,78.27
2016-12-10T05:23:24.165Z,78.08
2016-12-10T05:24:24.218Z,78.17
2016-12-10T05:25:24.229Z,78.08
2016-12-10T05:26:24.249Z,78.08
2016-12-10T05:27:24.314Z,78.36
2016-12-10T05:28:24.236Z,78.17
2016-12-10T05:29:24.273Z,78.45
2016-12-10T05:30:24.260Z,78.27
2016-12-10T05:31:24.269Z,78.17
2016-12-10T05:32:24.285Z,78.08
2016-12-10T05:33:24.296Z,78.36
2016-12-10T05:34:24.338Z,78.17
2016-12-10T05:35:24.320Z,78.17
2016-12-10T05:36:24.359Z,78.27
2016-12-10T05:37:24.421Z,78.27
2016-12-10T05:38:24.361Z,77.89
2016-12-10T05:39:24.408Z,77.98
2016-12-10T05:40:24.388Z,78.17
2016-12-10T05:41:24.482Z,77.98
2016-12-10T05:42:24.529Z,78.08
2016-12-10T05:43:24.429Z,78.27
2016-12-10T05:44:24.452Z,78.27
2016-12-10T05:45:24.492Z,78.36
2016-12-10T05:46:24.476Z,78.36
2016-12-10T05:47:24.481Z,78.27
2016-12-10T05:48:24.494Z,78.45
2016-12-10T05:49:24.507Z,78.45
2016-12-10T05:50:24.516Z,78.27
2016-12-10T05:51:24.535Z,78.45
2016-12-10T05:52:24.551Z,78.45
2016-12-10T05:53:24.558Z,78.08
2016-12-10T05:54:24.604Z,78.27
2016-12-10T05:55:24.598Z,78.08
2016-12-10T05:56:24.605Z,78.36
2016-12-10T05:57:24.623Z,78.27
2016-12-10T05:58:24.638Z,78.27
2016-12-10T05:59:24.637Z,78.36
2016-12-10T06:00:24.653Z,78.36
2016-12-10T06:01:24.686Z,78.27
2016-12-10T06:02:24.729Z,78.27
2016-12-10T06:03:24.693Z,78.36
2016-12-10T06:04:24.756Z,78.08
2016-12-10T06:05:24.754Z,78.17
2016-12-10T06:06:24.787Z,78.17
2016-12-10T06:07:24.744Z,78.55
2016-12-10T06:08:24.755Z,78.55
2016-12-10T06:09:24.845Z,78.64
2016-12-10T06:10:24.801Z,78.27
2016-12-10T06:11:24.796Z,78.17
2016-12-10T06:12:24.926Z,78.27
2016-12-10T06:13:24.844Z,78.45
2016-12-10T06:14:24.846Z,78.27
2016-12-10T06:15:25.236Z,78.55
2016-12-10T06:16:24.869Z,78.55
2016-12-10T06:17:24.900Z,78.36
2016-12-10T06:18:24.909Z,78.45
2016-12-10T06:19:24.965Z,78.45
2016-12-10T06:20:24.928Z,78.74
2016-12-10T06:21:24.966Z,78.64
2016-12-10T06:22:24.987Z,78.55
2016-12-10T06:23:24.958Z,78.55
2016-12-10T06:24:24.967Z,79.03
2016-12-10T06:25:24.977Z,78.45
2016-12-10T06:26:25.069Z,78.74
2016-12-10T06:27:25.004Z,78.74
2016-12-10T06:28:25.018Z,78.83
2016-12-10T06:29:25.032Z,78.83
2016-12-10T06:30:25.064Z,78.93
2016-12-10T06:31:25.057Z,78.17
2016-12-10T06:32:25.068Z,78.83
2016-12-10T06:33:25.081Z,78.64
2016-12-10T06:34:25.098Z,78.83
2016-12-10T06:35:25.110Z,78.83
2016-12-10T06:36:25.124Z,78.83
2016-12-10T06:37:25.137Z,78.83
2016-12-10T06:38:25.150Z,78.83
2016-12-10T06:39:25.164Z,79.12
2016-12-10T06:40:25.176Z,79.22
2016-12-10T06:41:25.187Z,78.93
2016-12-10T06:42:25.205Z,79.03
2016-12-10T06:43:25.215Z,79.03
2016-12-10T06:44:25.227Z,78.83
2016-12-10T06:45:25.242Z,78.83
2016-12-10T06:46:25.257Z,78.83
2016-12-10T06:47:25.269Z,79.31
2016-12-10T06:48:25.284Z,78.93
2016-12-10T06:49:25.295Z,78.93
2016-12-10T06:50:25.311Z,79.03
2016-12-10T06:51:25.329Z,79.12
2016-12-10T06:52:25.358Z,78.93
2016-12-10T06:53:25.347Z,78.55
2016-12-10T06:54:25.359Z,78.93
2016-12-10T06:55:25.375Z,78.55
2016-12-10T06:56:25.383Z,78.83
2016-12-10T06:57:25.398Z,78.83
2016-12-10T06:58:25.411Z,79.12
2016-12-10T06:59:25.427Z,79.03
2016-12-10T07:00:25.442Z,78.93
2016-12-10T07:01:25.449Z,79.03
2016-12-10T07:02:25.465Z,78.74
2016-12-10T07:03:25.478Z,78.74
2016-12-10T07:04:25.490Z,79.03
2016-12-10T07:05:25.503Z,78.93
2016-12-10T07:06:25.519Z,79.12
2016-12-10T07:07:25.529Z,78.83
2016-12-10T07:08:25.542Z,78.83
2016-12-10T07:09:25.560Z,79.03
2016-12-10T07:10:25.570Z,78.93
2016-12-10T07:11:25.587Z,78.83
2016-12-10T07:12:25.598Z,78.93
2016-12-10T07:13:25.612Z,79.03
2016-12-10T07:14:25.626Z,78.83
2016-12-10T07:15:25.636Z,78.93
2016-12-10T07:16:25.656Z,78.83
2016-12-10T07:17:25.671Z,78.83
2016-12-10T07:18:25.675Z,79.22
2016-12-10T07:19:25.689Z,79.03
2016-12-10T07:20:25.707Z,78.74
2016-12-10T07:21:25.718Z,79.03
2016-12-10T07:22:25.729Z,79.03
2016-12-10T07:23:25.746Z,78.55
2016-12-10T07:24:26.077Z,78.55
2016-12-10T07:25:25.772Z,79.03
2016-12-10T07:26:25.786Z,79.03
2016-12-10T07:27:25.797Z,78.74
2016-12-10T07:28:25.814Z,78.55
2016-12-10T07:29:25.824Z,78.74
2016-12-10T07:30:25.836Z,78.74
2016-12-10T07:31:25.848Z,79.03
2016-12-10T07:32:25.866Z,78.93
2016-12-10T07:33:25.875Z,78.74
2016-12-10T07:34:25.892Z,78.93
2016-12-10T07:35:25.902Z,79.31
2016-12-10T07:36:25.919Z,79.03
2016-12-10T07:37:25.929Z,78.93
2016-12-10T07:38:26.252Z,78.64
2016-12-10T07:39:25.955Z,78.74
2016-12-10T07:40:25.969Z,78.93
2016-12-10T07:41:25.980Z,78.93
2016-12-10T07:42:25.998Z,78.93
2016-12-10T07:43:26.008Z,78.83
2016-12-10T07:44:26.019Z,78.74
2016-12-10T07:45:26.036Z,78.74
2016-12-10T07:46:26.052Z,78.93
2016-12-10T07:47:26.060Z,78.93
2016-12-10T07:48:26.078Z,79.03
2016-12-10T07:49:26.091Z,79.12
2016-12-10T07:50:26.098Z,78.83
2016-12-10T07:51:26.113Z,78.78
2016-12-10T07:52:26.131Z,79.06
2016-12-10T07:53:26.141Z,79.06
2016-12-10T07:54:26.156Z,79.06
2016-12-10T07:55:26.169Z,78.83
2016-12-10T07:56:26.180Z,78.78
2016-12-10T07:57:26.196Z,78.97
2016-12-10T07:58:26.210Z,79.22
2016-12-10T07:59:26.222Z,78.78
2016-12-10T08:00:26.256Z,78.88
2016-12-10T08:01:26.249Z,79.54
2016-12-10T08:02:26.406Z,79.35
2016-12-10T08:03:26.368Z,78.78
2016-12-10T08:04:26.288Z,79.54
2016-12-10T08:05:26.301Z,78.97
2016-12-10T08:06:26.313Z,78.97
2016-12-10T08:07:26.330Z,79.44
2016-12-10T08:08:26.347Z,79.16
2016-12-10T08:09:26.354Z,79.25
2016-12-10T08:10:26.400Z,79.25
2016-12-10T08:11:26.382Z,79.54
2016-12-10T08:12:26.394Z,79.54
2016-12-10T08:13:26.405Z,79.54
2016-12-10T08:14:26.420Z,79.54
2016-12-10T08:15:26.442Z,79.35
2016-12-10T08:16:26.447Z,79.25
2016-12-10T08:17:26.464Z,79.25
2016-12-10T08:18:26.475Z,79.83
2016-12-10T08:19:26.489Z,79.25
2016-12-10T08:20:26.620Z,79.25
2016-12-10T08:21:26.517Z,79.44
2016-12-10T08:22:26.530Z,79.44
2016-12-10T08:23:26.542Z,79.54
2016-12-10T08:24:26.672Z,79.44
2016-12-10T08:25:26.568Z,79.63
2016-12-10T08:26:26.584Z,79.63
2016-12-10T08:27:26.594Z,79.73
2016-12-10T08:28:26.608Z,79.73
2016-12-10T08:29:26.624Z,79.73
2016-12-10T08:30:26.635Z,79.35
2016-12-10T08:31:26.649Z,79.54
2016-12-10T08:32:26.664Z,79.44
2016-12-10T08:33:26.758Z,79.63
2016-12-10T08:34:26.694Z,79.54
2016-12-10T08:35:26.704Z,79.25
2016-12-10T08:36:26.720Z,79.63
2016-12-10T08:37:26.728Z,79.73
2016-12-10T08:38:26.745Z,79.54
2016-12-10T08:39:26.760Z,79.35
2016-12-10T08:40:26.773Z,79.35
2016-12-10T08:41:26.788Z,79.73
2016-12-10T08:42:26.833Z,79.63
2016-12-10T08:43:26.816Z,79.54
2016-12-10T08:44:26.827Z,79.39
2016-12-10T08:45:26.926Z,79.44
2016-12-10T08:46:26.855Z,79.77
2016-12-10T08:47:26.874Z,79.68
2016-12-10T08:48:26.880Z,79.39
2016-12-10T08:49:26.895Z,79.58
2016-12-10T08:50:26.913Z,79.49
2016-12-10T08:51:27.055Z,79.3
2016-12-10T08:52:26.934Z,79.2
2016-12-10T08:53:26.951Z,79.11
2016-12-10T08:54:26.964Z,79.49
2016-12-10T08:55:27.007Z,79.58
2016-12-10T08:56:26.990Z,78.72
2016-12-10T08:57:27.006Z,79.11
2016-12-10T08:58:27.018Z,79.68
2016-12-10T08:59:27.032Z,79.01
2016-12-10T09:00:27.045Z,78.91
2016-12-10T09:01:27.060Z,79.39
2016-12-10T09:02:27.161Z,79.49
2016-12-10T09:03:27.088Z,79.3
2016-12-10T09:04:27.102Z,79.68
2016-12-10T09:05:27.118Z,79.58
2016-12-10T09:06:27.127Z,78.91
2016-12-10T09:07:27.145Z,79.11
2016-12-10T09:08:27.367Z,78.72
2016-12-10T09:09:27.172Z,79.2
2016-12-10T09:10:27.183Z,78.91
2016-12-10T09:11:27.273Z,79.01
2016-12-10T09:12:27.266Z,79.3
2016-12-10T09:13:27.274Z,79.2
2016-12-10T09:14:27.274Z,78.63
2016-12-10T09:15:27.323Z,79.05
2016-12-10T09:16:27.272Z,79.39
2016-12-10T09:17:27.288Z,79.24
2016-12-10T09:18:28.020Z,79.11
2016-12-10T09:19:27.320Z,78.82
2016-12-10T09:20:27.331Z,79.14
2016-12-10T09:21:27.451Z,78.96
2016-12-10T09:22:27.446Z,78.38
2016-12-10T09:23:27.365Z,79.05
2016-12-10T09:24:27.380Z,78.86
2016-12-10T09:25:27.396Z,79.05
2016-12-10T09:26:27.407Z,79.24
2016-12-10T09:27:27.423Z,79.05
2016-12-10T09:28:27.435Z,78.96
2016-12-10T09:29:27.450Z,78.86
2016-12-10T09:30:27.464Z,79.05
2016-12-10T09:31:27.481Z,78.48
2016-12-10T09:32:27.494Z,78.67
2016-12-10T09:33:27.507Z,78.67
2016-12-10T09:34:27.523Z,78.29
2016-12-10T09:35:27.535Z,78.96
2016-12-10T09:36:27.550Z,78.38
2016-12-10T09:37:27.568Z,78.19
2016-12-10T09:38:27.580Z,78.38
2016-12-10T09:39:27.590Z,78.19
2016-12-10T09:40:27.604Z,78.48
2016-12-10T09:41:27.621Z,78.1
2016-12-10T09:42:27.638Z,78.57
2016-12-10T09:43:27.649Z,78.1
2016-12-10T09:44:27.977Z,78.29
2016-12-10T09:45:27.681Z,78.33
2016-12-10T09:46:27.696Z,77.95
2016-12-10T09:47:27.711Z,77.76
2016-12-10T09:48:27.729Z,78.14
2016-12-10T09:49:27.735Z,77.95
2016-12-10T09:50:27.765Z,78.14
2016-12-10T09:51:27.768Z,78.14
2016-12-10T09:52:27.790Z,77.56
2016-12-10T09:53:27.798Z,77.95
2016-12-10T09:54:27.852Z,77.09
2016-12-10T09:55:27.827Z,77.76
2016-12-10T09:56:27.852Z,77.66
2016-12-10T09:57:27.852Z,77.28
2016-12-10T09:58:27.871Z,77.19
2016-12-10T09:59:27.884Z,77.85
2016-12-10T10:00:28.221Z,77.09
2016-12-10T10:01:27.941Z,77.37
2016-12-10T10:02:27.931Z,77.37
2016-12-10T10:03:27.944Z,76.71
2016-12-10T10:04:27.961Z,76.81
2016-12-10T10:05:27.973Z,77.09
2016-12-10T10:06:27.990Z,76.52
2016-12-10T10:07:28.005Z,76.04
2016-12-10T10:08:28.018Z,76.52
2016-12-10T10:09:28.031Z,76.42
2016-12-10T10:10:28.062Z,76.61
2016-12-10T10:11:28.062Z,76.23
2016-12-10T10:12:28.402Z,76.14
2016-12-10T10:13:28.092Z,76.14
2016-12-10T10:14:28.110Z,76.42
2016-12-10T10:15:28.167Z,75.76
2016-12-10T10:16:28.140Z,75.76
2016-12-10T10:17:28.147Z,75.42
2016-12-10T10:18:28.167Z,75.99
2016-12-10T10:19:28.178Z,75.47
2016-12-10T10:20:28.196Z,75.28
2016-12-10T10:21:28.208Z,75.7
2016-12-10T10:22:28.228Z,75.32
2016-12-10T10:23:28.241Z,75.23
2016-12-10T10:24:28.258Z,75.51
2016-12-10T10:25:28.271Z,75.04
2016-12-10T10:26:28.604Z,74.46
2016-12-10T10:27:28.300Z,74.46
2016-12-10T10:28:28.318Z,74.84
2016-12-10T10:29:28.333Z,74.65
2016-12-10T10:30:28.349Z,74.65
2016-12-10T10:31:28.361Z,74.65
2016-12-10T10:32:28.389Z,74.75
2016-12-10T10:33:28.393Z,74.75
2016-12-10T10:34:28.405Z,75.04
2016-12-10T10:35:28.422Z,74.75
2016-12-10T10:36:28.437Z,74.84
2016-12-10T10:37:28.449Z,74.75
2016-12-10T10:38:28.471Z,74.84
2016-12-10T10:39:28.485Z,74.75
2016-12-10T10:40:28.498Z,74.65
2016-12-10T10:41:28.523Z,74.08
2016-12-10T10:42:28.530Z,74.46
2016-12-10T10:43:28.544Z,74.75
2016-12-10T10:44:28.557Z,74.27
2016-12-10T10:45:28.572Z,74.18
2016-12-10T10:46:28.916Z,74.37
2016-12-10T10:47:28.603Z,74.18
2016-12-10T10:48:28.650Z,73.99
2016-12-10T10:49:28.636Z,73.89
2016-12-10T10:50:28.656Z,73.61
2016-12-10T10:51:28.666Z,73.65
2016-12-10T10:52:28.687Z,73.93
2016-12-10T10:53:28.695Z,73.22
2016-12-10T10:54:28.712Z,73.74
2016-12-10T10:55:28.729Z,73.41
2016-12-10T10:56:28.746Z,73.26
2016-12-10T10:57:28.756Z,72.97
2016-12-10T10:58:28.782Z,73.45
2016-12-10T10:59:28.903Z,73.45
2016-12-10T11:00:28.815Z,73.26
2016-12-10T11:01:28.821Z,72.88
2016-12-10T11:02:28.845Z,72.78
2016-12-10T11:03:28.854Z,73.26
2016-12-10T11:04:28.866Z,73.36
2016-12-10T11:05:28.883Z,73.55
2016-12-10T11:06:28.901Z,73.17
2016-12-10T11:07:29.031Z,72.88
2016-12-10T11:08:28.935Z,72.88
2016-12-10T11:09:28.946Z,72.88
2016-12-10T11:10:28.962Z,72.97
2016-12-10T11:11:28.976Z,72.97
2016-12-10T11:12:29.311Z,72.88
2016-12-10T11:13:29.009Z,72.78
2016-12-10T11:14:29.026Z,72.97
2016-12-10T11:15:29.105Z,72.97
2016-12-10T11:16:29.062Z,73.07
2016-12-10T11:17:29.289Z,72.97
2016-12-10T11:18:29.098Z,73.07
2016-12-10T11:19:29.103Z,73.07
2016-12-10T11:20:29.126Z,72.97
2016-12-10T11:21:29.136Z,72.6
2016-12-10T11:22:29.151Z,72.69
2016-12-10T11:23:29.164Z,72.5
2016-12-10T11:24:29.181Z,72.6
2016-12-10T11:25:29.194Z,72.6
2016-12-10T11:26:29.291Z,72.21
2016-12-10T11:27:29.340Z,72.02
2016-12-10T11:28:29.246Z,72.31
2016-12-10T11:29:29.306Z,72.5
2016-12-10T11:30:29.279Z,72.21
2016-12-10T11:31:29.287Z,72.21
2016-12-10T11:32:29.307Z,72.21
2016-12-10T11:33:29.323Z,72.21
2016-12-10T11:34:29.339Z,72.21
2016-12-10T11:35:29.352Z,72.41
2016-12-10T11:36:29.371Z,72.12
2016-12-10T11:37:29.384Z,72.02
2016-12-10T11:38:29.405Z,72.31
2016-12-10T11:39:29.468Z,72.31
2016-12-10T11:40:29.431Z,72.6
2016-12-10T11:41:29.562Z,72.12
2016-12-10T11:42:29.469Z,72.02
2016-12-10T11:43:29.482Z,71.93
2016-12-10T11:44:29.497Z,71.83
2016-12-10T11:45:29.512Z,71.73
2016-12-10T11:46:29.528Z,71.83
2016-12-10T11:47:29.656Z,71.83
2016-12-10T11:48:29.648Z,72.02
2016-12-10T11:49:29.576Z,71.83
2016-12-10T11:50:29.594Z,72.12
2016-12-10T11:51:29.608Z,71.55
2016-12-10T11:52:29.625Z,71.73
2016-12-10T11:53:29.639Z,71.73
2016-12-10T11:54:29.662Z,71.73
2016-12-10T11:55:29.675Z,71.36
2016-12-10T11:56:29.687Z,71.45
2016-12-10T11:57:29.706Z,71.64
2016-12-10T11:58:29.840Z,71.55
2016-12-10T11:59:29.740Z,71.64
2016-12-10T12:00:29.751Z,71.73
2016-12-10T12:01:29.832Z,71.73
2016-12-10T12:02:29.784Z,71.83
2016-12-10T12:03:29.799Z,71.07
2016-12-10T12:04:29.909Z,71.93
2016-12-10T12:05:29.832Z,71.45
2016-12-10T12:06:29.850Z,71.26
2016-12-10T12:07:29.864Z,70.88
2016-12-10T12:08:30.118Z,71.26
2016-12-10T12:09:30.107Z,71.26
2016-12-10T12:10:29.912Z,71.26
2016-12-10T12:11:29.939Z,71.26
2016-12-10T12:12:29.945Z,71.36
2016-12-10T12:13:29.963Z,71.26
2016-12-10T12:14:29.984Z,71.36
2016-12-10T12:15:29.995Z,71.26
2016-12-10T12:16:30.011Z,71.26
2016-12-10T12:17:30.028Z,71.26
2016-12-10T12:18:30.043Z,71.36
2016-12-10T12:19:30.061Z,70.78
2016-12-10T12:20:30.073Z,70.78
2016-12-10T12:21:30.093Z,70.78
2016-12-10T12:22:30.108Z,70.78
2016-12-10T12:23:30.127Z,70.78
2016-12-10T12:24:30.139Z,70.88
2016-12-10T12:25:30.158Z,70.88
2016-12-10T12:26:30.175Z,70.97
2016-12-10T12:27:30.195Z,70.97
2016-12-10T12:28:30.207Z,70.78
2016-12-10T12:29:30.219Z,70.69
2016-12-10T12:30:30.241Z,70.31
2016-12-10T12:31:30.255Z,70.31
2016-12-10T12:32:30.273Z,70.59
2016-12-10T12:33:30.290Z,70.4
2016-12-10T12:34:30.304Z,70.59
2016-12-10T12:35:30.318Z,70.4
2016-12-10T12:36:30.334Z,70.4
2016-12-10T12:37:30.361Z,70.31
2016-12-10T12:38:30.371Z,70.4
2016-12-10T12:39:30.380Z,70.59
2016-12-10T12:40:30.411Z,70.31
2016-12-10T12:41:30.416Z,70.69
2016-12-10T12:42:30.434Z,70.31
2016-12-10T12:43:30.454Z,70.21
2016-12-10T12:44:30.469Z,70.12
2016-12-10T12:45:30.483Z,70.21
2016-12-10T12:46:30.497Z,70.02
2016-12-10T12:47:30.514Z,70.4
2016-12-10T12:48:30.529Z,70.4
2016-12-10T12:49:30.544Z,70.5
2016-12-10T12:50:30.562Z,69.93
2016-12-10T12:51:30.581Z,70.31
2016-12-10T12:52:30.607Z,69.35
2016-12-10T12:53:30.612Z,69.64